Terminal Aerodrome Forecast
Issued by NWS

Home | Current Version | Previous Version | Text Only | Print | Product List | Glossary On
Versions: 1 2 3 4 5 6 7 8 9 10 11 12 13 14 15
000
FTUS45 KRIW 292000 AAA
TAFCPR
TAF AMD
KCPR 292051Z 2921/3018 01007KT P6SM BKN015 OVC025
     FM300100 09008KT P6SM OVC035
     FM300600 23006KT P6SM VCFG SCT006
     FM301600 25010KT P6SM SCT050=

USA.gov is the U.S. government's official web portal to all federal, state and local government web resources and services.